Incline Creek, Nevada Weather observations

Data are for observation ending at time listed.
 Day   Time    Ave.   Ave.  Ave.  Vector   Max.   Stn.    Total    Solar   Ave.   Snow 
  of    of     Air    Rel.  Wind   Wind    Wind   Baro.  Precip.   Rad.    Soil   Depth
Year   Day     Temp.  Hum.  Speed  Dir.    Gust   Pres.                    Temp.       
2015   (PST)    F      %     mph   deg.    mph     mb.     in.     W/m2     F      in. 
---------------------------------------------------------------------------------------  
 180    0:00   56.9    66    2.2    10      3.9   999.0    0.00       0    999.0   83.9
 180    0:10   56.8    66    2.0     4      4.2   999.0    0.00       0    999.0   83.9
 180    0:20   56.8    66    2.0    10      3.2   999.0    0.00       0    999.0   83.9
 180    0:30   56.7    66    1.9    19      4.6   999.0    0.00       0    999.0   83.9
 180    0:40   56.4    68    2.0     2      3.4   999.0    0.00       0    999.0   83.9
 180    0:50   56.2    69    2.3    24      3.8   999.0    0.00       0    999.0   83.9
 180    1:00   56.2    69    1.7    26      2.8   999.0    0.00       0    999.0   83.9
 180    1:10   56.2    70    2.3    18      3.5   999.0    0.00       0    999.0   83.9
 180    1:20   55.8    71    1.4    20      4.4   999.0    0.00       0    999.0   83.9
 180    1:30   55.9    71    1.9    28      4.7   999.0    0.00       0    999.0   83.9
 180    1:40   55.7    72    1.7    30      3.2   999.0    0.00       0    999.0   83.9
 180    1:50   55.7    72    1.3    32      2.4   999.0    0.00       0    999.0   83.9
 180    2:00   55.8    72    1.5    26      3.9   999.0    0.00       0    999.0   83.9
 180    2:10   55.9    72    1.4    28      2.8   999.0    0.00       0    999.0   83.9
 180    2:20   56.0    72    1.7    28      2.7   999.0    0.00       0    999.0   83.9
 180    2:30   55.9    73    1.4    21      2.1   999.0    0.00       0    999.0   83.9
 180    2:40   55.9    73    1.6    20      3.1   999.0    0.00       0    999.0   83.9
 180    2:50   56.0    73    1.8    20      3.0   999.0    0.00       0    999.0   83.9
 180    3:00   55.9    73    1.6    20      3.0   999.0    0.00       0    999.0   83.9
 180    3:10   55.7    73    2.0    21      3.6   999.0    0.00       0    999.0   83.9
 180    3:20   55.5    74    2.6    23      3.6   999.0    0.00       0    999.0   83.9
 180    3:30   55.2    74    1.8    29      3.7   999.0    0.00       0    999.0   83.9
 180    3:40   55.0    75    2.0    18      3.7   999.0    0.00       0    999.0   83.9
 180    3:50   55.0    74    1.8    15      2.9   999.0    0.00       0    999.0   83.9
 180    4:00   54.9    74    1.8    17      3.7   999.0    0.00       0    999.0   83.9
 180    4:10   55.0    74    2.4    20      3.6   999.0    0.00       0    999.0   83.9
 180    4:20   54.7    75    2.1    20      3.0   999.0    0.00       0    999.0   83.9
 180    4:30   54.5    75    2.0    24      3.4   999.0    0.00       1    999.0   83.9
 180    4:40   54.4    76    1.4    23      2.1   999.0    0.00       2    999.0   83.9
 180    4:50   54.3    76    2.1    18      3.3   999.0    0.00       5    999.0   83.9
 180    5:00   54.5    75    2.4    22      3.3   999.0    0.00       8    999.0   83.9
 180    5:10   54.2    76    2.2    21      3.4   999.0    0.00      14    999.0   83.9
 180    5:20   54.1    77    2.7    19      4.2   999.0    0.00      19    999.0   83.9
 180    5:30   54.0    78    2.0    22      2.9   999.0    0.00      27    999.0   83.9
 180    5:40   54.0    79    2.1    11      3.4   999.0    0.00      39    999.0   83.9
 180    5:50   54.2    79    1.8    16      2.8   999.0    0.00      45    999.0   83.9
 180    6:00   54.5    79    1.8    21      3.1   999.0    0.00      37    999.0   83.9
 180    6:10   54.4    80    1.4    22      2.5   999.0    0.00      58    999.0   83.9
 180    6:20   55.7    78    2.3    26      3.5   999.0    0.00     240    999.0   83.9
 180    6:30   57.8    73    1.3    32      1.9   999.0    0.00     300    999.0   83.9
 180    6:40   59.4    70    1.7    22      2.5   999.0    0.00     329    999.0   83.9
 180    6:50   60.8    68    1.5    28      2.1   999.0    0.00     305    999.0   83.9
 180    7:00   62.2    66    1.4    24      2.1   999.0    0.00     360    999.0   83.9
 180    7:10   63.6    64    1.4    22      2.0   999.0    0.00     395    999.0   83.9
 180    7:20   64.8    61    1.6    22      2.6   999.0    0.00     408    999.0   83.9
 180    7:30   66.7    55    1.3    28      2.2   999.0    0.00     486    999.0   83.9
 180    7:40   69.0    50    0.9    39      1.9   999.0    0.00     500    999.0   83.9
 180    7:50   70.2    47    0.9    60      1.8   999.0    0.00     531    999.0   83.9
 180    8:00   72.2    40    1.3   131      5.0   999.0    0.00     554    999.0   83.9
 180    8:10   71.9    40    2.1   131      4.2   999.0    0.00     592    999.0   83.9
 180    8:20   72.0    35    2.9   151      5.1   999.0    0.00     595    999.0   83.9
 180    8:30   71.8    37    3.8   143      7.4   999.0    0.00     652    999.0   83.9
 180    8:40   72.1    35    3.1   152      7.0   999.0    0.00     678    999.0   83.9
 180    8:50   72.7    32    3.1   124      6.7   999.0    0.00     706    999.0   83.9
 180    9:00   73.7    32    2.9   143      8.1   999.0    0.00     732    999.0    0.0
 180    9:10   72.4    34    4.5   151      9.5   999.0    0.00     752    999.0   83.9
 180    9:20   72.2    33    4.6   152     10.7   999.0    0.00     767    999.0    0.0
 180    9:30   72.7    33    5.2   147      8.0   999.0    0.00     859    999.0   83.9
 180    9:40   72.6    34    5.3   154      8.7   999.0    0.00     848    999.0   83.9
 180    9:50   72.8    35    5.3   156      9.2   999.0    0.00     852    999.0   83.9
 180   10:00   73.0    33    5.8   155     10.2   999.0    0.00     701    999.0   83.9
 180   10:10   72.6    34    3.4   140      5.9   999.0    0.00     637    999.0   83.9
 180   10:20   73.2    33    5.1   147      8.2   999.0    0.00     962    999.0   83.9
 180   10:30   73.6    33    4.5   161      8.3   999.0    0.00     919    999.0   83.9
 180   10:40   74.6    33    4.1   156      8.0   999.0    0.00     957    999.0   83.9
 180   10:50   75.5    32    4.2   151      8.7   999.0    0.00     990    999.0   83.9
 180   11:00   77.0    31    3.4   167      8.9   999.0    0.00     993    999.0   83.9
 180   11:10   76.1    32    5.8   153     13.0   999.0    0.00    1067    999.0   83.9
 180   11:20   76.1    32    5.4   147     10.0   999.0    0.00    1044    999.0   83.9
 180   11:30   76.6    31    4.9   143      9.4   999.0    0.00    1039    999.0   83.9
 180   11:40   76.7    30    4.7   151      9.7   999.0    0.00     903    999.0   83.9
 180   11:50   76.3    31    4.2   150      8.5   999.0    0.00     875    999.0   83.9
 180   12:00   76.0    31    6.0   145     11.8   999.0    0.00     943    999.0   83.9
 180   12:10   76.0    31    5.2   143      8.5   999.0    0.00     922    999.0   83.9
 180   12:20   76.3    30    5.4   137      9.5   999.0    0.00     640    999.0   83.9
 180   12:30   75.8    30    4.3   134      9.2   999.0    0.00     658    999.0   83.9
 180   12:40   76.2    29    5.4   149     11.3   999.0    0.00     757    999.0   83.9
 180   12:50   76.0    29    3.6   152      7.5   999.0    0.00     516    999.0   83.9
 180   13:00   76.5    29    3.2   147      9.0   999.0    0.00     432    999.0   83.9
 180   13:10   76.4    29    3.5   152      7.4   999.0    0.00     761    999.0   83.9
 180   13:20   77.1    27    4.2   148      8.8   999.0    0.00     661    999.0    0.0
 180   13:30   77.0    28    4.8   146      7.9   999.0    0.00     776    999.0   83.9
 180   13:40   77.0    28    5.2   148     10.2   999.0    0.00     707    999.0    0.0
 180   13:50   77.1    28    4.1   141      9.0   999.0    0.00     731    999.0   83.9
 180   14:00   77.7    27    4.7   151      8.1   999.0    0.00     527    999.0   83.9
 180   14:10   77.4    26    6.0   149      9.6   999.0    0.00     766    999.0   83.9
 180   14:20   77.2    27    6.0   146      9.5   999.0    0.00     944    999.0   83.9

Return to Incline Creek graphs page.


Western Regional Climate Center,wrcc@dri.edu